Time;durP1;ratioP1;P1;durP2;ratioP2;P2;SDS_P1;SDS_P2;PMS_P1;PMS_P2;Temp;Humidity;BMP_temperature;BMP_pressure;BME280_temperature;BME280_humidity;BME280_pressure;Samples;Min_cycle;Max_cycle;Signal;HPM_P1;HPM_P2
2022/05/26 00:00:32;;;;;;;9.70;7.20;;;13.90;99.90;;;;;;5071895;28;20119;-48
2022/05/26 00:02:58;;;;;;;;;;;14.00;99.90;;;;;;5070708;28;20549;-47
2022/05/26 00:05:24;;;;;;;19.88;8.55;;;13.90;99.90;;;;;;5071670;28;20007;-47
2022/05/26 00:07:49;;;;;;;13.60;8.25;;;14.00;99.90;;;;;;5072614;28;20101;-47
2022/05/26 00:10:15;;;;;;;14.68;9.20;;;14.00;99.90;;;;;;5071502;28;20025;-51
2022/05/26 00:12:41;;;;;;;11.38;8.50;;;14.00;99.90;;;;;;5070914;28;20101;-47
2022/05/26 00:15:07;;;;;;;20.65;8.98;;;14.00;99.90;;;;;;5071231;28;20382;-47
2022/05/26 00:17:33;;;;;;;10.88;8.77;;;14.00;99.90;;;;;;5071489;28;20074;-47
2022/05/26 00:19:58;;;;;;;16.95;9.25;;;14.00;99.90;;;;;;5071471;28;20076;-47
2022/05/26 00:22:25;;;;;;;14.45;7.72;;;14.00;99.90;;;;;;5070811;28;20442;-47
2022/05/26 00:24:51;;;;;;;15.20;8.25;;;14.00;99.90;;;;;;5070070;28;20067;-47
2022/05/26 00:27:17;;;;;;;18.20;7.85;;;14.00;99.90;;;;;;5071921;28;20482;-47
2022/05/26 00:29:42;;;;;;;18.60;9.98;;;14.00;99.90;;;;;;5070748;28;20117;-49
2022/05/26 00:32:09;;;;;;;14.93;8.68;;;14.00;99.90;;;;;;5070628;28;20628;-47
2022/05/26 00:34:35;;;;;;;16.48;9.48;;;14.00;99.90;;;;;;5069095;28;20089;-50
2022/05/26 00:37:00;;;;;;;12.15;8.40;;;14.10;99.90;;;;;;5071367;28;20421;-47
2022/05/26 00:39:26;;;;;;;25.17;10.25;;;14.10;99.90;;;;;;5059037;28;20041;-47
2022/05/26 00:41:56;;;;;;;18.83;10.63;;;14.00;99.90;;;;;;5069917;28;20048;-47
2022/05/26 00:44:22;;;;;;;18.80;10.10;;;14.10;99.90;;;;;;5071218;28;20052;-47
2022/05/26 00:47:03;;;;;;;;;;;14.00;99.90;;;;;;5070977;28;20036;-47
2022/05/26 00:49:45;;;;;;;18.48;10.18;;;14.00;99.90;;;;;;5071103;28;20003;-47
2022/05/26 00:52:15;;;;;;;22.77;10.77;;;13.90;99.90;;;;;;5070270;28;20516;-47
2022/05/26 00:54:43;;;;;;;28.33;12.45;;;14.00;99.90;;;;;;5070290;28;20028;-47
2022/05/26 00:57:16;;;;;;;21.75;11.35;;;13.90;99.90;;;;;;5070870;28;20047;-47
2022/05/26 00:59:56;;;;;;;16.85;10.43;;;13.90;99.90;;;;;;5070989;28;20044;-49
2022/05/26 01:02:26;;;;;;;19.20;11.63;;;13.90;99.90;;;;;;5069795;28;20079;-47
2022/05/26 01:04:59;;;;;;;16.10;10.98;;;13.90;99.90;;;;;;5070164;28;20087;-47
2022/05/26 01:07:29;;;;;;;22.65;10.93;;;13.90;99.90;;;;;;5070979;28;20048;-47
2022/05/26 01:09:56;;;;;;;22.73;12.15;;;13.90;99.90;;;;;;5070704;28;20039;-47
2022/05/26 01:12:21;;;;;;;20.48;12.82;;;14.00;99.90;;;;;;5069882;28;20041;-47
2022/05/26 01:14:58;;;;;;;21.15;13.07;;;13.90;99.90;;;;;;5069409;28;20059;-47
2022/05/26 01:17:23;;;;;;;23.42;10.75;;;14.00;99.90;;;;;;5070620;28;20046;-47
2022/05/26 01:20:10;;;;;;;22.47;12.90;;;14.00;99.90;;;;;;5070372;28;20040;-47
2022/05/26 01:23:02;;;;;;;19.08;12.20;;;13.90;99.90;;;;;;5069808;28;20055;-47
2022/05/26 01:25:48;;;;;;;25.38;13.00;;;13.90;99.90;;;;;;5069100;28;20048;-50
2022/05/26 01:28:53;;;;;;;16.63;12.48;;;13.90;99.90;;;;;;5070270;28;20036;-47
2022/05/26 01:31:26;;;;;;;26.48;13.80;;;13.90;99.90;;;;;;5070016;28;20033;-48
2022/05/26 01:34:03;;;;;;;24.85;13.02;;;13.90;99.90;;;;;;5070147;28;20194;-47
2022/05/26 01:37:03;;;;;;;22.17;12.25;;;13.90;99.90;;;;;;5068143;28;20127;-47
2022/05/26 01:39:48;;;;;;;24.55;13.32;;;13.90;99.90;;;;;;5070089;28;20048;-47
2022/05/26 01:42:17;;;;;;;27.52;14.20;;;13.90;99.90;;;;;;5068843;28;20049;-47
2022/05/26 01:44:56;;;;;;;30.05;13.48;;;13.90;99.90;;;;;;5068680;28;20040;-47
2022/05/26 01:47:42;;;;;;;26.80;13.90;;;13.80;99.90;;;;;;5069445;28;20491;-46
2022/05/26 01:50:45;;;;;;;23.92;12.75;;;13.90;99.90;;;;;;5069826;28;20363;-47
2022/05/26 01:53:44;;;;;;;32.78;15.18;;;13.90;99.90;;;;;;5069349;28;20037;-47
2022/05/26 01:56:33;;;;;;;31.40;15.10;;;13.90;99.90;;;;;;5049876;28;20041;-47
2022/05/26 01:59:05;;;;;;;26.25;14.18;;;13.90;99.90;;;;;;5060507;28;20074;-47
2022/05/26 02:01:39;;;;;;;25.77;13.93;;;13.90;99.90;;;;;;5069780;28;20041;-47
2022/05/26 02:04:19;;;;;;;25.58;14.10;;;13.80;99.90;;;;;;5069614;28;20041;-48
2022/05/26 02:06:51;;;;;;;26.48;13.65;;;13.80;99.90;;;;;;5069658;28;20440;-47
2022/05/26 02:09:26;;;;;;;28.30;14.73;;;13.80;99.90;;;;;;5070337;28;20033;-47
2022/05/26 02:12:09;;;;;;;27.17;15.27;;;13.80;99.90;;;;;;5068304;28;20033;-46
2022/05/26 02:15:12;;;;;;;28.50;14.73;;;13.80;99.90;;;;;;5068575;28;20115;-50
2022/05/26 02:17:46;;;;;;;26.48;14.90;;;13.80;99.90;;;;;;5025234;28;20052;-47
2022/05/26 02:20:32;;;;;;;28.70;14.10;;;13.80;99.90;;;;;;5069983;28;20048;-46
2022/05/26 02:23:12;;;;;;;36.60;16.05;;;13.90;99.90;;;;;;5068855;28;20054;-48
2022/05/26 02:25:38;;;;;;;31.02;15.60;;;13.90;99.90;;;;;;5070662;28;20565;-48
2022/05/26 02:28:05;;;;;;;31.90;15.77;;;13.90;99.90;;;;;;5072776;28;20040;-48
2022/05/26 02:30:36;;;;;;;26.33;15.55;;;13.90;99.90;;;;;;5073812;28;20072;-47
2022/05/26 02:33:05;;;;;;;31.48;15.25;;;13.90;99.90;;;;;;5073315;28;20133;-49
2022/05/26 02:35:33;;;;;;;27.23;15.52;;;13.90;99.90;;;;;;5072839;28;20044;-47
2022/05/26 02:38:27;;;;;;;35.20;15.90;;;13.90;99.90;;;;;;5073833;28;20409;-47
2022/05/26 02:40:54;;;;;;;39.67;16.58;;;13.90;99.90;;;;;;5071709;28;20416;-47
2022/05/26 02:43:24;;;;;;;24.90;14.57;;;13.90;99.90;;;;;;5072236;28;20063;-47
2022/05/26 02:45:53;;;;;;;37.10;15.40;;;13.90;99.90;;;;;;5072667;28;20055;-46
2022/05/26 02:48:52;;;;;;;35.75;16.65;;;13.90;99.90;;;;;;5073437;28;20036;-46
2022/05/26 02:51:27;;;;;;;31.92;15.65;;;13.90;99.90;;;;;;5071971;28;20075;-47
2022/05/26 02:54:01;;;;;;;33.53;16.75;;;14.00;99.90;;;;;;5073022;28;20119;-47
2022/05/26 02:56:46;;;;;;;30.65;16.45;;;14.00;99.90;;;;;;5072191;28;20041;-47
2022/05/26 02:59:36;;;;;;;33.80;16.70;;;14.00;99.90;;;;;;5073450;28;20430;-46
2022/05/26 03:02:09;;;;;;;35.08;16.27;;;14.00;99.90;;;;;;5071894;28;20044;-47
2022/05/26 03:04:40;;;;;;;26.92;15.38;;;14.00;99.90;;;;;;5071541;28;20056;-47
2022/05/26 03:07:13;;;;;;;33.03;16.73;;;14.00;99.90;;;;;;5072574;28;20062;-46
2022/05/26 03:09:41;;;;;;;34.58;16.50;;;14.00;99.90;;;;;;5073469;28;20036;-47
2022/05/26 03:12:21;;;;;;;29.50;16.80;;;14.00;99.90;;;;;;5072034;28;20113;-48
2022/05/26 03:14:47;;;;;;;30.85;16.05;;;14.00;99.90;;;;;;5072691;28;20044;-47
2022/05/26 03:17:12;;;;;;;31.93;16.80;;;14.00;99.90;;;;;;5073099;28;20035;-48
2022/05/26 03:19:38;;;;;;;27.90;16.27;;;14.00;99.90;;;;;;5073035;28;20267;-47
2022/05/26 03:22:04;;;;;;;34.58;17.63;;;14.00;99.90;;;;;;5072531;28;20068;-47
2022/05/26 03:24:30;;;;;;;30.52;16.38;;;14.00;99.90;;;;;;5072468;28;20101;-49
2022/05/26 03:26:55;;;;;;;30.02;15.88;;;14.10;99.90;;;;;;5071643;28;20098;-47
2022/05/26 03:29:21;;;;;;;38.47;17.30;;;14.00;99.90;;;;;;5072804;28;20036;-48
2022/05/26 03:31:46;;;;;;;34.80;16.83;;;14.10;99.90;;;;;;5070685;28;20274;-47
2022/05/26 03:42:26;;;;;;;38.08;17.10;;;14.10;99.90;;;;;;5071603;28;20048;-47
2022/05/26 03:44:52;;;;;;;36.78;16.40;;;14.00;99.90;;;;;;5071568;28;20044;-48
2022/05/26 03:47:17;;;;;;;28.20;15.38;;;14.10;99.90;;;;;;5072380;28;20051;-47
2022/05/26 03:49:43;;;;;;;34.70;16.00;;;14.10;99.90;;;;;;5071347;28;20032;-47
2022/05/26 03:52:08;;;;;;;37.33;16.60;;;14.10;99.90;;;;;;5071172;28;20037;-47
2022/05/26 03:54:34;;;;;;;33.00;15.45;;;14.10;99.90;;;;;;5071883;28;20115;-49
2022/05/26 03:57:00;;;;;;;38.05;15.80;;;14.10;99.90;;;;;;5070594;28;20485;-49
2022/05/26 03:59:25;;;;;;;26.63;14.25;;;14.10;99.90;;;;;;5072164;28;20036;-47
2022/05/26 04:01:52;;;;;;;34.22;13.88;;;14.10;99.90;;;;;;5071024;28;20048;-47
2022/05/26 04:04:18;;;;;;;29.88;13.40;;;14.10;99.90;;;;;;5071734;28;20040;-47
2022/05/26 04:06:43;;;;;;;28.60;13.67;;;14.10;99.90;;;;;;5070713;28;20044;-47
2022/05/26 04:09:09;;;;;;;28.90;14.77;;;14.10;99.90;;;;;;5072578;28;20307;-47
2022/05/26 04:11:35;;;;;;;41.72;14.00;;;14.10;99.90;;;;;;5071411;28;20119;-47
2022/05/26 04:14:01;;;;;;;42.50;13.65;;;14.10;99.90;;;;;;5070202;28;20036;-47
2022/05/26 04:16:26;;;;;;;34.20;13.85;;;14.10;99.90;;;;;;5071498;28;20045;-48
2022/05/26 04:18:52;;;;;;;34.67;12.98;;;14.10;99.90;;;;;;5071378;28;20044;-48
2022/05/26 04:21:18;;;;;;;29.90;11.38;;;14.10;99.90;;;;;;5071542;28;20044;-47
2022/05/26 04:23:43;;;;;;;31.20;12.32;;;14.10;99.90;;;;;;5071347;28;20486;-47
2022/05/26 04:26:10;;;;;;;33.83;13.73;;;14.20;99.90;;;;;;5070911;28;20493;-47
2022/05/26 04:28:37;;;;;;;39.20;13.50;;;14.20;99.90;;;;;;5071654;28;20277;-47
2022/05/26 04:31:03;;;;;;;22.02;9.77;;;14.20;99.90;;;;;;5071952;28;20366;-47
2022/05/26 04:33:29;;;;;;;30.38;10.60;;;14.20;99.90;;;;;;5071195;28;20119;-47
2022/05/26 04:35:56;;;;;;;30.48;10.68;;;14.20;99.90;;;;;;5070537;28;20040;-46
2022/05/26 04:38:22;;;;;;;26.60;10.40;;;14.20;99.90;;;;;;5071850;28;20109;-47
2022/05/26 04:41:02;;;;;;;22.95;9.50;;;14.20;99.90;;;;;;5071194;28;20040;-47
2022/05/26 04:43:28;;;;;;;26.85;8.80;;;14.30;99.90;;;;;;5070885;28;20119;-47
2022/05/26 04:45:54;;;;;;;23.40;7.78;;;14.30;99.90;;;;;;5068740;28;20563;-48
2022/05/26 04:48:21;;;;;;;25.90;7.28;;;14.30;99.90;;;;;;5070217;28;20090;-47
2022/05/26 04:50:51;;;;;;;24.60;5.75;;;14.30;99.90;;;;;;5071315;28;20047;-48
2022/05/26 04:53:17;;;;;;;22.33;5.88;;;14.30;99.90;;;;;;5069101;28;20033;-48
2022/05/26 04:55:43;;;;;;;22.63;6.10;;;14.30;99.90;;;;;;5070208;28;20098;-47
2022/05/26 04:58:08;;;;;;;20.50;5.95;;;14.30;99.90;;;;;;5070602;28;20447;-47
2022/05/26 05:00:34;;;;;;;24.60;5.40;;;14.30;99.90;;;;;;5070880;28;20059;-47
2022/05/26 05:03:00;;;;;;;21.25;4.35;;;14.30;99.90;;;;;;5069836;28;20826;-47
2022/05/26 05:05:26;;;;;;;17.90;4.07;;;14.30;99.90;;;;;;5068701;28;20075;-47
2022/05/26 05:07:51;;;;;;;18.15;4.40;;;14.30;99.90;;;;;;5070399;28;20040;-47
2022/05/26 05:10:17;;;;;;;16.40;4.73;;;14.40;99.90;;;;;;5070388;28;20029;-47
2022/05/26 05:12:43;;;;;;;16.08;4.30;;;14.50;99.90;;;;;;5069759;28;20290;-47
2022/05/26 05:15:19;;;;;;;27.08;11.43;;;14.50;99.90;;;;;;5069304;28;20036;-47
2022/05/26 05:17:45;;;;;;;23.10;7.95;;;14.60;99.90;;;;;;5069703;28;20051;-47
2022/05/26 05:20:11;;;;;;;19.85;5.13;;;14.70;99.90;;;;;;5070487;28;20036;-47
2022/05/26 05:22:47;;;;;;;19.98;4.22;;;14.70;99.90;;;;;;5070066;28;20037;-48
2022/05/26 05:25:20;;;;;;;23.58;6.78;;;14.80;99.90;;;;;;5068505;28;20044;-47
2022/05/26 05:28:02;;;;;;;16.55;4.78;;;14.90;99.90;;;;;;5069781;28;20059;-48
2022/05/26 05:30:51;;;;;;;20.42;4.25;;;14.90;99.90;;;;;;5070549;28;20091;-47
2022/05/26 05:33:21;;;;;;;17.67;6.38;;;15.10;99.90;;;;;;5060764;28;20049;-47
2022/05/26 05:36:08;;;;;;;15.88;3.80;;;15.10;99.90;;;;;;5069671;28;20516;-47
2022/05/26 05:38:38;;;;;;;16.33;4.68;;;15.20;99.90;;;;;;5048739;28;20068;-47
2022/05/26 05:41:04;;;;;;;13.90;4.35;;;15.20;99.90;;;;;;5050394;28;20041;-47
2022/05/26 05:43:31;;;;;;;16.35;5.72;;;15.20;99.90;;;;;;5069261;28;20107;-48
2022/05/26 05:45:57;;;;;;;14.40;5.10;;;15.20;99.90;;;;;;5067889;28;20059;-47
2022/05/26 05:48:23;;;;;;;13.20;5.25;;;15.20;99.90;;;;;;5070301;28;20033;-47
2022/05/26 05:50:48;;;;;;;17.60;5.82;;;15.20;99.90;;;;;;5069417;28;20207;-47
2022/05/26 05:53:15;;;;;;;13.63;4.25;;;15.20;99.90;;;;;;5069525;28;20058;-47
2022/05/26 05:55:42;;;;;;;15.45;5.80;;;15.30;99.90;;;;;;5068110;28;20146;-47
2022/05/26 05:58:09;;;;;;;17.35;8.57;;;15.30;99.90;;;;;;5070561;28;20090;-47
2022/05/26 06:00:36;;;;;;;27.80;13.27;;;15.20;99.90;;;;;;5069647;28;20044;-47
2022/05/26 06:03:01;;;;;;;;;;;15.30;99.90;;;;;;5069401;28;20047;-48
2022/05/26 06:05:27;;;;;;;17.10;4.55;;;15.30;99.90;;;;;;5069180;28;20300;-47
2022/05/26 06:07:53;;;;;;;14.63;3.00;;;15.20;99.90;;;;;;5069562;28;20047;-47
2022/05/26 06:10:18;;;;;;;14.60;4.63;;;15.30;99.90;;;;;;5070206;28;20076;-47
2022/05/26 06:12:45;;;;;;;13.85;3.67;;;15.30;99.90;;;;;;5069212;28;20074;-48
2022/05/26 06:15:11;;;;;;;14.93;3.42;;;15.30;99.90;;;;;;5068833;28;20040;-47
2022/05/26 06:17:37;;;;;;;15.10;5.25;;;15.30;99.90;;;;;;5069636;28;20094;-47
2022/05/26 06:20:04;;;;;;;12.98;4.60;;;15.30;99.90;;;;;;5069269;28;20455;-48
2022/05/26 06:22:30;;;;;;;11.38;5.40;;;15.30;99.90;;;;;;5067846;28;20119;-48
2022/05/26 06:24:56;;;;;;;11.20;5.80;;;15.30;99.90;;;;;;5067608;28;20120;-47
2022/05/26 06:30:10;;;;;;;7.25;1.83;;;15.40;99.90;;;;;;5066465;28;20032;-46
2022/05/26 06:38:17;;;;;;;6.40;0.98;;;15.70;99.90;;;;;;5069373;28;20040;-48
2022/05/26 06:40:43;;;;;;;5.32;0.60;;;15.80;99.90;;;;;;5068828;28;20047;-47
2022/05/26 06:43:09;;;;;;;6.28;0.80;;;16.00;99.90;;;;;;5068146;28;20037;-47
2022/05/26 06:45:36;;;;;;;3.67;0.55;;;16.10;99.90;;;;;;5068964;28;20041;-47
2022/05/26 06:48:01;;;;;;;5.05;0.63;;;16.20;99.90;;;;;;5069061;28;20037;-47
2022/05/26 06:50:27;;;;;;;5.28;0.63;;;16.20;99.90;;;;;;5069940;28;20055;-46
2022/05/26 06:52:53;;;;;;;4.38;0.60;;;16.30;99.90;;;;;;5068353;28;20047;-46
2022/05/26 06:55:19;;;;;;;6.07;1.17;;;16.40;99.90;;;;;;5068217;28;20041;-47
2022/05/26 06:57:44;;;;;;;8.68;1.25;;;16.40;99.90;;;;;;5068921;28;20044;-49
2022/05/26 07:00:12;;;;;;;6.43;0.70;;;16.50;99.90;;;;;;5069688;28;20398;-47
2022/05/26 07:02:38;;;;;;;6.60;0.47;;;16.50;99.90;;;;;;5068115;28;20553;-47
2022/05/26 07:05:05;;;;;;;4.25;0.40;;;16.50;99.90;;;;;;5067422;28;20123;-47
2022/05/26 07:07:32;;;;;;;3.88;0.95;;;16.50;99.90;;;;;;5058052;28;20055;-48
2022/05/26 07:09:59;;;;;;;7.35;0.63;;;16.60;99.90;;;;;;5069199;28;20037;-47
2022/05/26 07:12:25;;;;;;;5.47;0.50;;;16.70;99.90;;;;;;5071780;28;20032;-47
2022/05/26 07:14:51;;;;;;;2.88;0.30;;;16.70;99.90;;;;;;5072425;28;20608;-47
2022/05/26 07:17:18;;;;;;;7.25;0.80;;;16.60;99.90;;;;;;5072249;28;20150;-47
2022/05/26 07:19:43;;;;;;;7.82;0.68;;;16.60;99.90;;;;;;5073132;28;20036;-47
2022/05/26 07:22:09;;;;;;;2.83;0.60;;;16.60;99.90;;;;;;5070187;28;20033;-48
2022/05/26 07:24:35;;;;;;;4.15;0.60;;;16.60;99.90;;;;;;5072173;28;20040;-47
2022/05/26 07:27:01;;;;;;;2.63;0.40;;;16.50;99.90;;;;;;5072600;28;20375;-47
2022/05/26 07:29:27;;;;;;;5.38;0.30;;;16.50;99.90;;;;;;5072709;28;20064;-47
2022/05/26 07:31:53;;;;;;;2.95;0.40;;;16.50;99.90;;;;;;5071798;28;20037;-48
2022/05/26 07:34:20;;;;;;;3.65;0.30;;;16.50;99.90;;;;;;5072820;28;20036;-47
2022/05/26 07:42:18;;;;;;;7.15;0.55;;;16.60;99.90;;;;;;5072233;28;20044;-48
2022/05/26 07:44:46;;;;;;;1.50;0.20;;;16.60;99.90;;;;;;5072016;28;20036;-48
2022/05/26 07:47:12;;;;;;;5.40;0.30;;;16.60;99.90;;;;;;5071635;28;20044;-47
2022/05/26 07:49:41;;;;;;;1.98;0.40;;;16.60;99.90;;;;;;5070909;28;20579;-47
2022/05/26 07:52:09;;;;;;;5.45;0.95;;;16.70;99.90;;;;;;5072102;28;20553;-47
2022/05/26 07:54:34;;;;;;;2.83;0.60;;;16.70;99.90;;;;;;5071715;28;20055;-50
2022/05/26 07:57:01;;;;;;;1.83;0.15;;;16.80;99.90;;;;;;5072376;28;20502;-47
2022/05/26 07:59:28;;;;;;;5.25;0.25;;;16.80;99.90;;;;;;5070971;28;20282;-49
2022/05/26 08:01:53;;;;;;;2.00;0.20;;;16.80;99.90;;;;;;5071355;28;20473;-47
2022/05/26 08:04:19;;;;;;;3.15;0.10;;;16.80;99.90;;;;;;5071811;28;20051;-47
2022/05/26 08:06:46;;;;;;;6.20;0.50;;;16.70;99.90;;;;;;5070405;28;20116;-47
2022/05/26 08:09:22;;;;;;;3.88;0.20;;;16.80;99.90;;;;;;5071702;28;20076;-47
2022/05/26 08:11:48;;;;;;;1.83;0.40;;;16.80;99.90;;;;;;5071502;28;20072;-48
2022/05/26 08:14:14;;;;;;;3.70;0.22;;;16.80;99.90;;;;;;5070953;28;20117;-49
2022/05/26 08:16:41;;;;;;;4.18;0.25;;;16.80;99.90;;;;;;5070711;28;20094;-47
2022/05/26 08:19:07;;;;;;;3.65;0.30;;;16.90;99.90;;;;;;5072272;28;20083;-46
2022/05/26 08:21:35;;;;;;;1.00;0.13;;;16.90;99.90;;;;;;5070340;28;20068;-48
2022/05/26 08:24:02;;;;;;;5.53;0.30;;;17.00;99.90;;;;;;5069881;28;20087;-47
2022/05/26 08:26:28;;;;;;;1.65;0.20;;;17.10;99.90;;;;;;5070062;28;20072;-47
2022/05/26 08:28:55;;;;;;;3.58;0.30;;;17.10;99.90;;;;;;5071221;28;20491;-48
2022/05/26 08:31:21;;;;;;;3.83;0.20;;;17.10;99.90;;;;;;5070621;28;20541;-49
2022/05/26 08:33:46;;;;;;;4.88;0.40;;;17.00;99.90;;;;;;5070911;28;20032;-47
2022/05/26 08:36:15;;;;;;;3.70;0.40;;;17.00;99.90;;;;;;5070284;28;20091;-47
2022/05/26 08:38:41;;;;;;;2.53;0.38;;;17.10;99.90;;;;;;5066746;28;20098;-47
2022/05/26 08:41:08;;;;;;;;;;;17.20;99.90;;;;;;5073989;28;20036;-47
2022/05/26 08:43:47;;;;;;;6.38;0.20;;;17.20;99.40;;;;;;5082186;28;19999;-47
2022/05/26 08:46:17;;;;;;;2.40;0.20;;;17.20;99.90;;;;;;5083194;28;20036;-48
2022/05/26 08:48:43;;;;;;;3.33;0.20;;;17.20;99.90;;;;;;5084566;28;20049;-47
2022/05/26 08:51:13;;;;;;;1.17;0.10;;;17.40;99.90;;;;;;5086094;28;20032;-49
2022/05/26 08:53:41;;;;;;;3.90;0.30;;;17.50;99.90;;;;;;5079481;28;20036;-47
2022/05/26 08:56:11;;;;;;;4.82;0.30;;;17.50;99.90;;;;;;5069081;28;20086;-47
2022/05/26 08:58:46;;;;;;;2.83;0.20;;;17.60;99.90;;;;;;5066076;28;20457;-46
2022/05/26 09:01:16;;;;;;;1.65;0.20;;;17.70;99.90;;;;;;5068767;28;20047;-48
2022/05/26 09:03:42;;;;;;;4.18;0.25;;;17.70;99.90;;;;;;5073695;28;20052;-47
2022/05/26 09:06:17;;;;;;;3.72;0.30;;;17.80;99.90;;;;;;5071836;28;20040;-47
2022/05/26 09:14:22;;;;;;;4.47;0.32;;;18.10;99.90;;;;;;5070978;28;20465;-48
2022/05/26 09:16:48;;;;;;;2.33;0.25;;;18.20;99.10;;;;;;5076269;28;20037;-48
2022/05/26 09:19:21;;;;;;;6.60;0.20;;;18.20;99.50;;;;;;5073457;28;20050;-49
2022/05/26 09:21:49;;;;;;;5.20;0.30;;;18.30;99.20;;;;;;5073653;28;20409;-46
2022/05/26 09:24:29;;;;;;;3.03;0.30;;;18.30;99.10;;;;;;5074204;28;20039;-48
2022/05/26 09:27:00;;;;;;;2.50;0.43;;;18.30;98.50;;;;;;5077188;28;20508;-47
2022/05/26 09:29:29;;;;;;;3.92;0.40;;;18.40;98.90;;;;;;5073914;28;20048;-47
2022/05/26 09:31:58;;;;;;;3.22;0.50;;;18.40;99.90;;;;;;5072150;28;20044;-47
2022/05/26 09:34:25;;;;;;;2.67;0.15;;;18.50;99.20;;;;;;5067185;28;20032;-49
2022/05/26 09:36:52;;;;;;;2.20;0.20;;;18.60;98.70;;;;;;5067675;28;20089;-48
2022/05/26 09:39:30;;;;;;;2.65;0.28;;;18.50;97.70;;;;;;5068722;28;20241;-47
2022/05/26 09:41:57;;;;;;;4.40;0.57;;;18.50;97.20;;;;;;5066768;28;20036;-49
2022/05/26 09:44:29;;;;;;;1.35;0.20;;;18.40;97.20;;;;;;5073720;28;20119;-47
2022/05/26 09:46:57;;;;;;;1.50;0.10;;;18.40;97.80;;;;;;5069415;28;20044;-46
2022/05/26 09:49:27;;;;;;;3.65;0.15;;;18.40;98.10;;;;;;5068567;28;20033;-47
2022/05/26 09:52:09;;;;;;;3.42;0.50;;;18.40;98.70;;;;;;5072292;28;20400;-49
2022/05/26 09:54:35;;;;;;;3.25;0.20;;;18.50;99.10;;;;;;5068250;28;20508;-48
2022/05/26 09:57:19;;;;;;;2.95;0.20;;;18.60;98.60;;;;;;5071790;28;20036;-46
2022/05/26 09:59:45;;;;;;;3.35;0.30;;;18.60;96.80;;;;;;5077323;28;20063;-46
2022/05/26 10:02:14;;;;;;;1.45;0.10;;;18.60;96.70;;;;;;5073107;28;20041;-48
2022/05/26 10:05:01;;;;;;;1.48;0.28;;;18.70;96.30;;;;;;5084098;28;20100;-48
2022/05/26 10:07:39;;;;;;;1.65;0.10;;;18.70;96.30;;;;;;5075844;28;20564;-47
2022/05/26 10:10:32;;;;;;;1.20;0.20;;;18.70;96.60;;;;;;5084673;28;20036;-49
2022/05/26 10:13:33;;;;;;;1.50;0.10;;;18.80;97.10;;;;;;5082147;28;20042;-47
2022/05/26 10:16:24;;;;;;;3.45;0.20;;;19.00;96.90;;;;;;5081523;28;20422;-47
2022/05/26 10:19:31;;;;;;;3.65;0.13;;;19.10;96.90;;;;;;5084409;28;20055;-47
2022/05/26 10:22:34;;;;;;;5.70;0.20;;;19.10;96.00;;;;;;5075939;28;20089;-47
2022/05/26 10:25:19;;;;;;;1.60;0.10;;;19.20;96.40;;;;;;5079210;28;20024;-47
2022/05/26 10:27:56;;;;;;;2.40;0.45;;;19.10;95.90;;;;;;5070575;28;20036;-48
2022/05/26 10:30:33;;;;;;;3.65;0.20;;;19.00;97.40;;;;;;5066769;28;20040;-46
2022/05/26 10:33:28;;;;;;;4.18;0.95;;;19.00;97.20;;;;;;5075834;28;20115;-48
2022/05/26 10:36:24;;;;;;;1.83;0.20;;;18.90;97.80;;;;;;5066867;28;20056;-48
2022/05/26 10:39:18;;;;;;;4.57;0.30;;;18.70;97.10;;;;;;5069765;28;20237;-47
2022/05/26 10:41:52;;;;;;;6.38;0.40;;;18.50;97.80;;;;;;5068469;28;20498;-48
2022/05/26 10:44:26;;;;;;;4.60;0.32;;;18.40;97.50;;;;;;5068697;28;20123;-48
2022/05/26 10:47:17;;;;;;;3.72;0.30;;;18.20;97.70;;;;;;5071938;28;20044;-47
2022/05/26 10:49:47;;;;;;;2.30;0.30;;;18.20;97.40;;;;;;5062562;28;20048;-47
2022/05/26 10:52:21;;;;;;;2.42;0.30;;;18.10;98.50;;;;;;5073116;28;20048;-47
2022/05/26 10:55:10;;;;;;;2.65;0.40;;;18.10;99.60;;;;;;5071280;28;20047;-47
2022/05/26 10:57:57;;;;;;;2.65;0.60;;;18.40;99.90;;;;;;5072711;28;20040;-47
2022/05/26 11:00:29;;;;;;;5.80;1.35;;;18.60;99.90;;;;;;5070745;28;20044;-47
2022/05/26 11:03:19;;;;;;;3.10;0.40;;;18.70;98.60;;;;;;5071714;28;20053;-47
2022/05/26 11:05:50;;;;;;;2.10;0.40;;;18.70;97.80;;;;;;5061024;28;20522;-48
2022/05/26 11:08:40;;;;;;;3.38;0.32;;;18.60;97.10;;;;;;5073258;28;20423;-47
2022/05/26 11:11:17;;;;;;;2.78;0.55;;;18.50;97.50;;;;;;5072957;28;20024;-49
2022/05/26 11:13:50;;;;;;;2.85;0.47;;;18.60;98.80;;;;;;5072096;28;20040;-48
2022/05/26 11:19:39;;;;;;;5.35;0.57;;;18.80;98.80;;;;;;5068925;28;20127;-47
2022/05/26 11:22:05;;;;;;;5.68;0.43;;;19.00;99.20;;;;;;5066876;28;20083;-48
2022/05/26 11:24:32;;;;;;;;;;;19.20;98.60;;;;;;5068797;28;20043;-47
2022/05/26 11:27:10;;;;;;;5.78;0.65;;;19.30;98.30;;;;;;5067773;28;19921;-48
2022/05/26 11:29:40;;;;;;;5.25;0.50;;;19.30;97.90;;;;;;5068496;28;20508;-48
2022/05/26 11:38:06;;;;;;;;;;;19.60;98.40;;;;;;5049091;28;20494;-47
2022/05/26 11:40:41;;;;;;;6.45;0.43;;;19.50;96.80;;;;;;5066634;28;19928;-47
2022/05/26 11:43:07;;;;;;;4.93;0.30;;;19.40;97.40;;;;;;5068300;28;20402;-47
2022/05/26 11:45:46;;;;;;;2.70;0.30;;;19.20;97.30;;;;;;5066787;28;20036;-49
2022/05/26 11:48:30;;;;;;;11.95;0.85;;;19.10;97.40;;;;;;5068383;28;20573;-47
2022/05/26 11:51:00;;;;;;;4.47;0.35;;;19.20;97.80;;;;;;5067631;28;20075;-47
2022/05/26 11:53:32;;;;;;;4.93;0.73;;;19.20;97.30;;;;;;5066995;28;20033;-48
2022/05/26 11:56:01;;;;;;;3.53;0.50;;;19.20;97.40;;;;;;5066378;28;20489;-48
2022/05/26 11:58:29;;;;;;;4.30;0.30;;;19.10;97.40;;;;;;5066312;28;20143;-48
2022/05/26 12:01:21;;;;;;;4.72;0.93;;;19.20;97.80;;;;;;5066249;28;20123;-48
2022/05/26 12:03:48;;;;;;;5.97;0.60;;;19.30;97.30;;;;;;5066956;28;20048;-49
2022/05/26 12:06:16;;;;;;;1.83;0.40;;;19.40;97.20;;;;;;5066615;28;20068;-50
2022/05/26 12:09:09;;;;;;;4.65;0.40;;;19.50;98.20;;;;;;5067181;28;20505;-47
2022/05/26 12:12:02;;;;;;;5.32;0.43;;;19.50;97.40;;;;;;5067391;28;20108;-48
2022/05/26 12:14:58;;;;;;;3.55;0.60;;;19.40;97.60;;;;;;5067464;28;20533;-47
2022/05/26 12:17:43;;;;;;;6.53;0.50;;;19.40;96.60;;;;;;5067332;28;20040;-47
2022/05/26 12:20:12;;;;;;;3.85;0.50;;;19.30;96.90;;;;;;5067138;28;20063;-47
2022/05/26 12:22:49;;;;;;;6.50;1.25;;;19.30;96.60;;;;;;5066618;28;20044;-47
2022/05/26 12:25:29;;;;;;;3.85;0.50;;;19.20;96.70;;;;;;5066262;28;20244;-47
2022/05/26 12:28:16;;;;;;;5.28;0.55;;;19.00;96.90;;;;;;5066543;28;20101;-46
2022/05/26 12:30:44;;;;;;;3.97;0.63;;;19.00;98.20;;;;;;5045148;28;20044;-48
2022/05/26 12:33:19;;;;;;;2.47;0.35;;;19.10;97.10;;;;;;5066593;28;20646;-47
2022/05/26 12:36:09;;;;;;;5.68;0.52;;;19.10;96.60;;;;;;5050088;28;20028;-47
2022/05/26 12:39:10;;;;;;;3.92;0.30;;;19.10;97.70;;;;;;5067112;28;20105;-48
2022/05/26 12:41:44;;;;;;;5.95;0.30;;;19.10;97.40;;;;;;5065287;28;20501;-47
2022/05/26 12:44:34;;;;;;;1.60;0.32;;;19.20;97.50;;;;;;5066754;28;20032;-48
2022/05/26 12:47:18;;;;;;;3.88;0.30;;;19.30;98.10;;;;;;5070373;28;20040;-48
2022/05/26 12:49:58;;;;;;;3.92;0.30;;;19.40;97.80;;;;;;5070802;28;20438;-47
2022/05/26 12:52:37;;;;;;;7.15;0.22;;;19.50;97.00;;;;;;5070111;28;20044;-47
2022/05/26 12:55:18;;;;;;;6.97;0.63;;;19.50;97.10;;;;;;5070256;28;20068;-49
2022/05/26 12:58:00;;;;;;;2.60;0.40;;;19.50;96.90;;;;;;5070907;28;20047;-48
2022/05/26 13:00:43;;;;;;;6.22;0.85;;;19.60;96.50;;;;;;5070750;28;20047;-50
2022/05/26 13:03:29;;;;;;;3.15;0.50;;;19.70;97.70;;;;;;5068269;28;20076;-48
2022/05/26 13:06:18;;;;;;;1.45;0.30;;;19.80;95.00;;;;;;5070068;28;20041;-47
2022/05/26 13:09:04;;;;;;;4.28;0.20;;;19.70;95.90;;;;;;5059537;28;20047;-48
2022/05/26 13:11:34;;;;;;;3.60;0.50;;;19.60;94.90;;;;;;5070162;28;20794;-47
2022/05/26 13:14:09;;;;;;;3.22;0.50;;;19.60;95.30;;;;;;5070208;28;20283;-47
2022/05/26 13:16:38;;;;;;;4.18;0.30;;;19.60;94.60;;;;;;5070579;28;20045;-48
2022/05/26 13:19:22;;;;;;;4.15;0.40;;;19.60;94.50;;;;;;5070431;28;20037;-48
2022/05/26 13:21:53;;;;;;;4.15;0.40;;;19.50;93.90;;;;;;5069678;28;20036;-48
2022/05/26 13:24:23;;;;;;;11.88;0.98;;;19.60;94.20;;;;;;5070486;28;20047;-47
2022/05/26 13:26:54;;;;;;;4.22;0.30;;;19.70;95.20;;;;;;5070019;28;20049;-48
2022/05/26 13:29:21;;;;;;;3.80;0.40;;;19.80;94.40;;;;;;5070425;28;20058;-48
2022/05/26 13:34:34;;;;;;;3.13;0.30;;;20.00;95.40;;;;;;5069849;28;20079;-48
2022/05/26 13:37:30;;;;;;;7.00;0.50;;;20.10;94.90;;;;;;5069912;28;20036;-48
2022/05/26 13:40:10;;;;;;;3.45;0.30;;;20.00;93.60;;;;;;5069998;28;20033;-47
2022/05/26 13:42:39;;;;;;;2.28;0.52;;;20.10;94.30;;;;;;5068751;28;20045;-48
2022/05/26 13:45:07;;;;;;;6.07;0.52;;;20.00;94.30;;;;;;5069652;28;20028;-48
2022/05/26 13:47:33;;;;;;;8.82;0.73;;;19.90;94.10;;;;;;5068924;28;20131;-47